La rose des vents
Donnes mto: Semaine 15/03/21 - 21/03/21 (S 11)
Date Horaire Temp. E. Hum. E. P.atmo. Pluie Vent 1mn Direction Ensoleilleme Ev.Tr. Solaire P. de rose Temp au vent Rafales
15/03/2021 00:00 9,9 C 35 % 1014,2 hPa 0,0 l/m 7,6 km/h (2 Bft) O-NO 0,00 h 0,076 mm 0 W/m -4,8 C 9,3 C 14,4 km/h (3 Bft)
15/03/2021 01:00 10,0 C 35 % 1013,8 hPa 0,0 l/m 9,4 km/h (2 Bft) O-NO 0,00 h 0,076 mm 0 W/m -4,7 C 9,1 C 17,9 km/h (3 Bft)
15/03/2021 02:00 9,9 C 37 % 1013,5 hPa 0,0 l/m 10,9 km/h (2 Bft) O-NO 0,00 h 0,102 mm 0 W/m -4,2 C 8,4 C 19,7 km/h (3 Bft)
15/03/2021 03:00 9,6 C 38 % 1012,9 hPa 0,0 l/m 11,1 km/h (2 Bft) O-NO 0,00 h 0,102 mm 0 W/m -4,0 C 8,0 C 19,8 km/h (3 Bft)
15/03/2021 04:00 9,7 C 38 % 1012,4 hPa 0,0 l/m 8,5 km/h (2 Bft) NO 0,00 h 0,102 mm 0 W/m -3,8 C 8,5 C 16,0 km/h (3 Bft)
15/03/2021 05:00 8,5 C 41 % 1012,8 hPa 0,0 l/m 1,4 km/h (1 Bft) E-SE 0,00 h 0,076 mm 0 W/m -3,9 C 8,5 C 2,3 km/h (1 Bft)
15/03/2021 06:00 7,0 C 46 % 1012,9 hPa 0,0 l/m 3,5 km/h (1 Bft) E-SE 0,02 h 0,051 mm 8 W/m -3,9 C 6,7 C 4,9 km/h (1 Bft)
15/03/2021 07:00 7,2 C 48 % 1012,9 hPa 0,0 l/m 0,0 km/h (0 Bft) N 0,10 h 0,025 mm 40 W/m -3,2 C 7,2 C 0,0 km/h (0 Bft)
15/03/2021 08:00 10,3 C 46 % 1012,8 hPa 0,0 l/m 0,0 km/h (0 Bft) N 0,80 h 0,025 mm 254 W/m -1,0 C 10,3 C 0,0 km/h (0 Bft)
15/03/2021 09:00 13,3 C 41 % 1012,5 hPa 0,0 l/m 0,0 km/h (0 Bft) N 1,00 h 0,127 mm 453 W/m 0,2 C 13,3 C 0,0 km/h (0 Bft)
15/03/2021 10:00 15,9 C 36 % 1011,8 hPa 0,0 l/m 0,6 km/h (0 Bft) E-SE 1,00 h 0,229 mm 590 W/m 0,9 C 15,9 C 2,1 km/h (1 Bft)
15/03/2021 11:00 17,2 C 33 % 1011,0 hPa 0,0 l/m 1,4 km/h (1 Bft) S-SE 1,00 h 0,330 mm 681 W/m 0,6 C 17,2 C 4,1 km/h (1 Bft)
15/03/2021 12:00 18,7 C 28 % 1009,9 hPa 0,0 l/m 2,0 km/h (1 Bft) S-SE 1,00 h 0,381 mm 715 W/m -0,2 C 18,7 C 5,6 km/h (1 Bft)
15/03/2021 13:00 18,5 C 28 % 1008,9 hPa 0,0 l/m 2,8 km/h (1 Bft) E 1,00 h 0,432 mm 689 W/m -0,4 C 18,5 C 7,2 km/h (2 Bft)
15/03/2021 14:00 18,9 C 32 % 1008,1 hPa 0,0 l/m 0,7 km/h (0 Bft) E 1,00 h 0,406 mm 609 W/m 1,7 C 18,9 C 3,4 km/h (1 Bft)
15/03/2021 15:00 18,9 C 32 % 1007,9 hPa 0,0 l/m 0,5 km/h (0 Bft) E 1,00 h 0,356 mm 484 W/m 1,7 C 18,9 C 2,0 km/h (1 Bft)
15/03/2021 16:00 17,0 C 34 % 1008,0 hPa 0,0 l/m 0,5 km/h (0 Bft) SE 1,00 h 0,279 mm 324 W/m 0,9 C 17,0 C 2,6 km/h (1 Bft)
15/03/2021 17:00 14,5 C 38 % 1008,5 hPa 0,0 l/m 0,5 km/h (0 Bft) SE 0,92 h 0,203 mm 146 W/m 0,4 C 14,5 C 2,0 km/h (1 Bft)
15/03/2021 18:00 12,1 C 51 % 1008,9 hPa 0,0 l/m 1,5 km/h (1 Bft) SE 0,00 h 0,102 mm 13 W/m 2,1 C 12,1 C 2,8 km/h (1 Bft)
15/03/2021 19:00 10,4 C 63 % 1009,6 hPa 0,0 l/m 2,7 km/h (1 Bft) SE 0,00 h 0,025 mm 0 W/m 3,6 C 10,3 C 4,8 km/h (1 Bft)
15/03/2021 20:00 9,6 C 62 % 1009,7 hPa 0,0 l/m 0,6 km/h (0 Bft) N 0,00 h 0,025 mm 0 W/m 2,7 C 9,6 C 1,6 km/h (1 Bft)
15/03/2021 21:00 10,6 C 52 % 1009,6 hPa 0,0 l/m 2,8 km/h (1 Bft) N 0,00 h 0,025 mm 0 W/m 1,2 C 10,5 C 4,4 km/h (1 Bft)
15/03/2021 22:00 9,5 C 58 % 1010,1 hPa 0,0 l/m 0,2 km/h (0 Bft) NO 0,00 h 0,051 mm 0 W/m 1,6 C 9,5 C 0,6 km/h (0 Bft)
15/03/2021 23:00 11,2 C 38 % 1010,3 hPa 0,0 l/m 7,1 km/h (2 Bft) NO 0,00 h 0,025 mm 0 W/m -2,7 C 11,1 C 14,3 km/h (3 Bft)
16/03/2021 00:00 12,3 C 34 % 1010,1 hPa 0,0 l/m 4,0 km/h (1 Bft) NO 0,00 h 0,076 mm 0 W/m -3,1 C 12,3 C 8,7 km/h (2 Bft)
16/03/2021 01:00 10,2 C 59 % 1010,9 hPa 0,0 l/m 1,5 km/h (1 Bft) SE 0,00 h 0,076 mm 0 W/m 2,5 C 10,2 C 3,2 km/h (1 Bft)
16/03/2021 02:00 9,6 C 55 % 1011,1 hPa 0,0 l/m 1,8 km/h (1 Bft) SO 0,00 h 0,025 mm 0 W/m 1,0 C 9,5 C 3,5 km/h (1 Bft)
16/03/2021 03:00 9,4 C 59 % 1010,9 hPa 0,0 l/m 2,5 km/h (1 Bft) S-SE 0,00 h 0,025 mm 0 W/m 1,6 C 9,3 C 4,1 km/h (1 Bft)
16/03/2021 04:00 9,3 C 73 % 1011,7 hPa 0,0 l/m 0,9 km/h (0 Bft) S-SE 0,00 h 0,025 mm 0 W/m 4,7 C 9,2 C 1,7 km/h (1 Bft)
16/03/2021 05:00 8,3 C 79 % 1012,8 hPa 0,0 l/m 1,1 km/h (0 Bft) S-SE 0,00 h 0,025 mm 0 W/m 4,9 C 8,3 C 2,8 km/h (1 Bft)
16/03/2021 06:00 7,8 C 81 % 1013,3 hPa 0,0 l/m 1,8 km/h (1 Bft) S-SE 0,00 h 0,025 mm 8 W/m 4,7 C 7,8 C 4,3 km/h (1 Bft)
16/03/2021 07:00 8,0 C 72 % 1014,1 hPa 0,0 l/m 0,4 km/h (0 Bft) S-SE 0,08 h 0,000 mm 41 W/m 3,1 C 8,0 C 1,1 km/h (0 Bft)
16/03/2021 08:00 11,0 C 59 % 1015,0 hPa 0,0 l/m 0,0 km/h (0 Bft) N 0,85 h 0,025 mm 265 W/m 3,3 C 11,0 C 0,0 km/h (0 Bft)
16/03/2021 09:00 14,9 C 45 % 1015,6 hPa 0,0 l/m 1,4 km/h (1 Bft) S 1,00 h 0,127 mm 462 W/m 3,1 C 14,9 C 2,8 km/h (1 Bft)
16/03/2021 10:00 16,5 C 39 % 1015,8 hPa 0,0 l/m 4,0 km/h (1 Bft) S 1,00 h 0,254 mm 602 W/m 2,4 C 16,5 C 8,4 km/h (2 Bft)
16/03/2021 11:00 17,0 C 34 % 1015,7 hPa 0,0 l/m 6,1 km/h (2 Bft) S 1,00 h 0,356 mm 694 W/m 0,9 C 17,0 C 11,3 km/h (2 Bft)
16/03/2021 12:00 17,5 C 29 % 1015,6 hPa 0,0 l/m 6,1 km/h (2 Bft) S 1,00 h 0,432 mm 726 W/m -0,9 C 17,5 C 11,6 km/h (2 Bft)
16/03/2021 13:00 17,7 C 25 % 1015,3 hPa 0,0 l/m 6,1 km/h (2 Bft) S 1,00 h 0,457 mm 703 W/m -2,8 C 17,7 C 11,7 km/h (2 Bft)
16/03/2021 14:00 17,8 C 24 % 1015,2 hPa 0,0 l/m 8,4 km/h (2 Bft) S 1,00 h 0,457 mm 621 W/m -3,3 C 17,8 C 14,5 km/h (3 Bft)
16/03/2021 15:00 16,8 C 32 % 1014,9 hPa 0,0 l/m 8,7 km/h (2 Bft) S 1,00 h 0,432 mm 495 W/m -0,1 C 16,8 C 14,8 km/h (3 Bft)
16/03/2021 16:00 16,0 C 36 % 1015,1 hPa 0,0 l/m 7,3 km/h (2 Bft) S 1,00 h 0,356 mm 330 W/m 1,0 C 16,0 C 12,9 km/h (3 Bft)
16/03/2021 17:00 15,6 C 41 % 1015,0 hPa 0,0 l/m 2,4 km/h (1 Bft) S 0,90 h 0,229 mm 147 W/m 2,2 C 15,6 C 4,5 km/h (1 Bft)
16/03/2021 18:00 13,6 C 54 % 1015,4 hPa 0,0 l/m 0,0 km/h (0 Bft) N 0,03 h 0,102 mm 14 W/m 4,5 C 13,6 C 0,0 km/h (0 Bft)
16/03/2021 19:00 10,5 C 64 % 1015,9 hPa 0,0 l/m 0,0 km/h (0 Bft) N 0,00 h 0,025 mm 0 W/m 4,1 C 10,5 C 0,0 km/h (0 Bft)
16/03/2021 20:00 9,3 C 65 % 1016,0 hPa 0,0 l/m 0,0 km/h (0 Bft) N 0,00 h 0,000 mm 0 W/m 3,1 C 9,3 C 0,0 km/h (0 Bft)
16/03/2021 21:00 8,7 C 61 % 1016,4 hPa 0,0 l/m 0,0 km/h (0 Bft) N 0,00 h 0,025 mm 0 W/m 1,7 C 8,7 C 0,0 km/h (0 Bft)
16/03/2021 22:00 8,3 C 60 % 1016,9 hPa 0,0 l/m 0,0 km/h (0 Bft) N 0,00 h 0,025 mm 0 W/m 0,9 C 8,3 C 0,0 km/h (0 Bft)
16/03/2021 23:00 8,0 C 58 % 1017,1 hPa 0,0 l/m 0,0 km/h (0 Bft) N 0,00 h 0,025 mm 0 W/m 0,1 C 8,0 C 0,0 km/h (0 Bft)
17/03/2021 00:00 8,0 C 53 % 1017,0 hPa 0,0 l/m 0,0 km/h (0 Bft) N 0,00 h 0,025 mm 0 W/m -0,9 C 8,0 C 0,0 km/h (0 Bft)
17/03/2021 01:00 8,1 C 50 % 1016,8 hPa 0,0 l/m 0,0 km/h (0 Bft) N 0,00 h 0,025 mm 0 W/m -1,6 C 8,1 C 0,0 km/h (0 Bft)
17/03/2021 02:00 8,1 C 48 % 1016,2 hPa 0,0 l/m 0,0 km/h (0 Bft) N 0,00 h 0,025 mm 0 W/m -2,2 C 8,1 C 0,0 km/h (0 Bft)
17/03/2021 03:00 7,4 C 49 % 1015,4 hPa 0,0 l/m 0,6 km/h (0 Bft) N 0,00 h 0,025 mm 0 W/m -2,6 C 7,4 C 2,0 km/h (1 Bft)
17/03/2021 04:00 7,2 C 48 % 1015,0 hPa 0,0 l/m 0,3 km/h (0 Bft) N 0,00 h 0,025 mm 0 W/m -3,2 C 7,2 C 1,5 km/h (1 Bft)
17/03/2021 05:00 6,5 C 49 % 1014,7 hPa 0,0 l/m 1,3 km/h (1 Bft) N 0,00 h 0,025 mm 0 W/m -3,5 C 6,5 C 3,1 km/h (1 Bft)
17/03/2021 06:00 6,6 C 46 % 1014,7 hPa 0,0 l/m 0,7 km/h (0 Bft) N 0,00 h 0,025 mm 7 W/m -4,1 C 6,6 C 2,1 km/h (1 Bft)
17/03/2021 07:00 6,4 C 48 % 1015,0 hPa 0,0 l/m 1,5 km/h (1 Bft) N 0,07 h 0,000 mm 46 W/m -3,6 C 6,4 C 3,8 km/h (1 Bft)
17/03/2021 08:00 9,0 C 47 % 1015,1 hPa 0,0 l/m 0,1 km/h (0 Bft) NO 0,67 h 0,025 mm 246 W/m -1,8 C 9,0 C 0,8 km/h (0 Bft)
17/03/2021 09:00 12,5 C 43 % 1015,2 hPa 0,0 l/m 0,0 km/h (0 Bft) N 0,97 h 0,127 mm 413 W/m 0,1 C 12,5 C 0,0 km/h (0 Bft)
17/03/2021 10:00 16,1 C 32 % 1015,0 hPa 0,0 l/m 0,7 km/h (0 Bft) S 1,00 h 0,203 mm 602 W/m -0,7 C 16,1 C 2,9 km/h (1 Bft)
17/03/2021 11:00 16,4 C 31 % 1014,9 hPa 0,0 l/m 3,5 km/h (1 Bft) E 1,00 h 0,330 mm 694 W/m -0,9 C 16,4 C 8,7 km/h (2 Bft)
17/03/2021 12:00 16,3 C 35 % 1014,7 hPa 0,0 l/m 3,3 km/h (1 Bft) E 1,00 h 0,406 mm 732 W/m 0,7 C 16,3 C 8,1 km/h (2 Bft)
17/03/2021 13:00 16,6 C 33 % 1014,2 hPa 0,0 l/m 2,2 km/h (1 Bft) E 1,00 h 0,432 mm 666 W/m 0,2 C 16,6 C 6,3 km/h (2 Bft)
17/03/2021 14:00 15,0 C 44 % 1013,8 hPa 0,0 l/m 1,6 km/h (1 Bft) S-SE 0,52 h 0,381 mm 417 W/m 2,9 C 15,0 C 4,5 km/h (1 Bft)
17/03/2021 15:00 13,1 C 56 % 1013,7 hPa 0,0 l/m 0,5 km/h (0 Bft) E-SE 0,00 h 0,229 mm 100 W/m 4,5 C 13,1 C 1,6 km/h (1 Bft)
17/03/2021 16:00 11,9 C 59 % 1013,7 hPa 0,0 l/m 0,5 km/h (0 Bft) E 0,00 h 0,051 mm 36 W/m 4,1 C 11,9 C 2,2 km/h (1 Bft)
17/03/2021 17:00 8,7 C 71 % 1014,8 hPa 0,8 l/m 5,6 km/h (1 Bft) N-NO 0,00 h 0,025 mm 7 W/m 3,6 C 8,1 C 11,4 km/h (2 Bft)
17/03/2021 18:00 6,8 C 88 % 1015,7 hPa 0,2 l/m 0,9 km/h (0 Bft) N-NO 0,00 h 0,025 mm 10 W/m 4,9 C 6,8 C 2,5 km/h (1 Bft)
17/03/2021 19:00 6,2 C 91 % 1016,1 hPa 0,0 l/m 0,9 km/h (0 Bft) N-NO 0,00 h 0,000 mm 0 W/m 4,8 C 6,2 C 2,2 km/h (1 Bft)
17/03/2021 20:00 5,7 C 91 % 1015,8 hPa 0,0 l/m 2,4 km/h (1 Bft) N-NO 0,00 h 0,000 mm 0 W/m 4,4 C 5,6 C 4,9 km/h (1 Bft)
17/03/2021 21:00 5,6 C 90 % 1015,5 hPa 0,0 l/m 3,3 km/h (1 Bft) O-NO 0,00 h 0,000 mm 0 W/m 4,0 C 5,4 C 6,0 km/h (2 Bft)
17/03/2021 22:00 6,0 C 84 % 1015,2 hPa 0,0 l/m 0,6 km/h (0 Bft) O-NO 0,00 h 0,000 mm 0 W/m 3,6 C 6,0 C 2,2 km/h (1 Bft)
17/03/2021 23:00 6,6 C 78 % 1015,3 hPa 0,0 l/m 0,4 km/h (0 Bft) O-NO 0,00 h 0,000 mm 0 W/m 3,1 C 6,6 C 1,5 km/h (1 Bft)
18/03/2021 00:00 6,6 C 76 % 1015,2 hPa 0,0 l/m 0,3 km/h (0 Bft) O-NO 0,00 h 0,025 mm 0 W/m 2,6 C 6,6 C 1,5 km/h (1 Bft)
18/03/2021 01:00 7,2 C 71 % 1015,0 hPa 0,0 l/m 0,1 km/h (0 Bft) O-NO 0,00 h 0,025 mm 0 W/m 2,3 C 7,2 C 0,3 km/h (0 Bft)
18/03/2021 02:00 7,2 C 71 % 1015,1 hPa 0,0 l/m 0,0 km/h (0 Bft) O-NO 0,00 h 0,025 mm 0 W/m 2,3 C 7,2 C 0,3 km/h (0 Bft)
18/03/2021 03:00 7,5 C 68 % 1014,8 hPa 0,0 l/m 0,0 km/h (0 Bft) N 0,00 h 0,025 mm 0 W/m 2,0 C 7,5 C 0,0 km/h (0 Bft)
18/03/2021 04:00 7,5 C 67 % 1014,5 hPa 0,0 l/m 0,9 km/h (0 Bft) O-NO 0,00 h 0,025 mm 0 W/m 1,8 C 7,5 C 2,4 km/h (1 Bft)
18/03/2021 05:00 8,0 C 60 % 1014,6 hPa 0,0 l/m 2,6 km/h (1 Bft) O-NO 0,00 h 0,025 mm 0 W/m 0,8 C 8,0 C 5,3 km/h (1 Bft)
18/03/2021 06:00 8,0 C 58 % 1014,6 hPa 0,0 l/m 0,2 km/h (0 Bft) NO 0,00 h 0,025 mm 5 W/m 0,3 C 8,0 C 1,0 km/h (0 Bft)
18/03/2021 07:00 7,9 C 60 % 1015,1 hPa 0,0 l/m 0,4 km/h (0 Bft) NO 0,00 h 0,000 mm 27 W/m 0,5 C 7,9 C 1,0 km/h (0 Bft)
18/03/2021 08:00 8,5 C 66 % 1015,6 hPa 0,0 l/m 0,3 km/h (0 Bft) N-NE 0,00 h 0,025 mm 128 W/m 2,5 C 8,5 C 1,4 km/h (1 Bft)
18/03/2021 09:00 9,4 C 68 % 1016,0 hPa 0,0 l/m 0,1 km/h (0 Bft) N-NE 0,00 h 0,051 mm 157 W/m 3,9 C 9,4 C 0,6 km/h (0 Bft)
18/03/2021 10:00 10,2 C 64 % 1016,2 hPa 0,0 l/m 0,2 km/h (0 Bft) E-SE 0,00 h 0,076 mm 142 W/m 3,7 C 10,2 C 0,9 km/h (0 Bft)
18/03/2021 11:00 11,0 C 62 % 1015,8 hPa 0,0 l/m 2,8 km/h (1 Bft) E 0,10 h 0,076 mm 287 W/m 4,1 C 11,0 C 7,6 km/h (2 Bft)
18/03/2021 12:00 10,9 C 62 % 1015,9 hPa 0,2 l/m 1,5 km/h (1 Bft) N-NE 0,17 h 0,152 mm 220 W/m 3,8 C 10,9 C 6,4 km/h (2 Bft)
18/03/2021 13:00 8,5 C 76 % 1016,0 hPa 0,2 l/m 1,4 km/h (1 Bft) N 0,00 h 0,127 mm 152 W/m 4,5 C 8,5 C 3,8 km/h (1 Bft)
18/03/2021 14:00 8,0 C 76 % 1015,5 hPa 0,0 l/m 4,5 km/h (1 Bft) NO 0,00 h 0,076 mm 119 W/m 4,0 C 7,5 C 10,0 km/h (2 Bft)
18/03/2021 15:00 7,8 C 82 % 1015,2 hPa 0,6 l/m 2,2 km/h (1 Bft) O-NO 0,53 h 0,076 mm 294 W/m 4,9 C 7,6 C 4,4 km/h (1 Bft)
18/03/2021 16:00 9,2 C 74 % 1014,5 hPa 0,0 l/m 0,0 km/h (0 Bft) N 0,00 h 0,127 mm 122 W/m 4,8 C 9,2 C 0,3 km/h (0 Bft)
18/03/2021 17:00 8,0 C 76 % 1014,2 hPa 0,0 l/m 0,5 km/h (0 Bft) O-NO 0,00 h 0,051 mm 23 W/m 4,0 C 8,0 C 1,7 km/h (1 Bft)
18/03/2021 18:00 6,9 C 77 % 1014,6 hPa 0,0 l/m 2,9 km/h (1 Bft) NO 0,00 h 0,025 mm 8 W/m 3,2 C 6,7 C 5,7 km/h (1 Bft)
18/03/2021 19:00 5,9 C 82 % 1014,7 hPa 0,0 l/m 0,5 km/h (0 Bft) NO 0,00 h 0,000 mm 0 W/m 3,1 C 5,9 C 2,2 km/h (1 Bft)
18/03/2021 20:00 5,6 C 83 % 1014,8 hPa 0,0 l/m 0,1 km/h (0 Bft) NO 0,00 h 0,000 mm 0 W/m 2,9 C 5,6 C 0,7 km/h (0 Bft)
18/03/2021 21:00 5,7 C 82 % 1014,9 hPa 0,0 l/m 1,1 km/h (1 Bft) NO 0,00 h 0,000 mm 0 W/m 2,9 C 5,7 C 2,8 km/h (1 Bft)
18/03/2021 22:00 5,8 C 82 % 1014,7 hPa 0,0 l/m 0,4 km/h (0 Bft) NO 0,00 h 0,000 mm 0 W/m 2,9 C 5,8 C 1,4 km/h (1 Bft)
18/03/2021 23:00 5,7 C 85 % 1014,4 hPa 0,0 l/m 1,1 km/h (1 Bft) NO 0,00 h 0,000 mm 0 W/m 3,4 C 5,7 C 2,5 km/h (1 Bft)
19/03/2021 00:00 5,5 C 85 % 1013,7 hPa 0,0 l/m 4,7 km/h (1 Bft) NO 0,00 h 0,000 mm 0 W/m 3,2 C 4,8 C 8,6 km/h (2 Bft)
19/03/2021 01:00 5,4 C 84 % 1013,4 hPa 0,2 l/m 3,9 km/h (1 Bft) NO 0,00 h 0,025 mm 0 W/m 3,0 C 5,0 C 7,2 km/h (2 Bft)
19/03/2021 02:00 5,2 C 85 % 1013,0 hPa 0,0 l/m 4,3 km/h (1 Bft) NO 0,00 h 0,025 mm 0 W/m 2,8 C 4,4 C 7,8 km/h (2 Bft)
19/03/2021 03:00 5,4 C 80 % 1012,1 hPa 0,0 l/m 5,7 km/h (1 Bft) NO 0,00 h 0,025 mm 0 W/m 2,2 C 4,4 C 9,7 km/h (2 Bft)
19/03/2021 04:00 5,7 C 76 % 1011,5 hPa 0,0 l/m 1,5 km/h (1 Bft) NO 0,00 h 0,025 mm 0 W/m 1,8 C 5,6 C 3,5 km/h (1 Bft)
19/03/2021 05:00 5,5 C 77 % 1011,1 hPa 0,0 l/m 1,2 km/h (1 Bft) NO 0,00 h 0,025 mm 0 W/m 1,7 C 5,5 C 3,9 km/h (1 Bft)
19/03/2021 06:00 5,8 C 71 % 1010,9 hPa 0,0 l/m 1,6 km/h (1 Bft) N-NO 0,00 h 0,025 mm 6 W/m 1,0 C 5,8 C 5,3 km/h (1 Bft)
19/03/2021 07:00 6,3 C 65 % 1011,1 hPa 0,0 l/m 2,3 km/h (1 Bft) NO 0,00 h 0,000 mm 35 W/m 0,2 C 6,2 C 5,5 km/h (1 Bft)
19/03/2021 08:00 7,1 C 66 % 1011,3 hPa 0,0 l/m 0,5 km/h (0 Bft) N-NO 0,00 h 0,025 mm 121 W/m 1,3 C 7,1 C 1,7 km/h (1 Bft)
19/03/2021 09:00 8,5 C 68 % 1011,5 hPa 0,0 l/m 1,9 km/h (1 Bft) N-NO 0,32 h 0,051 mm 258 W/m 2,9 C 8,5 C 6,6 km/h (2 Bft)
19/03/2021 10:00 9,3 C 65 % 1011,8 hPa 0,0 l/m 3,2 km/h (1 Bft) E 0,38 h 0,127 mm 295 W/m 3,2 C 9,2 C 10,3 km/h (2 Bft)
19/03/2021 11:00 8,7 C 62 % 1012,1 hPa 0,0 l/m 2,6 km/h (1 Bft) NE 0,08 h 0,152 mm 218 W/m 1,8 C 8,6 C 8,2 km/h (2 Bft)
19/03/2021 12:00 10,9 C 56 % 1011,9 hPa 0,0 l/m 3,9 km/h (1 Bft) E 0,67 h 0,102 mm 502 W/m 2,5 C 10,9 C 12,8 km/h (3 Bft)
19/03/2021 13:00 11,5 C 54 % 1011,7 hPa 0,0 l/m 4,5 km/h (1 Bft) E 0,87 h 0,254 mm 537 W/m 2,5 C 11,5 C 14,8 km/h (3 Bft)
19/03/2021 14:00 12,1 C 53 % 1011,4 hPa 0,0 l/m 3,8 km/h (1 Bft) E 0,90 h 0,279 mm 546 W/m 2,9 C 12,1 C 12,7 km/h (3 Bft)
19/03/2021 15:00 12,2 C 53 % 1011,1 hPa 0,0 l/m 3,7 km/h (1 Bft) E 0,93 h 0,279 mm 473 W/m 3,0 C 12,2 C 12,7 km/h (3 Bft)
19/03/2021 16:00 11,2 C 57 % 1010,9 hPa 0,0 l/m 3,4 km/h (1 Bft) E 0,67 h 0,254 mm 261 W/m 2,9 C 11,2 C 11,3 km/h (2 Bft)
19/03/2021 17:00 9,8 C 57 % 1011,1 hPa 0,0 l/m 3,0 km/h (1 Bft) E 0,00 h 0,152 mm 75 W/m 1,6 C 9,6 C 9,3 km/h (2 Bft)
19/03/2021 18:00 9,2 C 53 % 1011,6 hPa 0,0 l/m 2,4 km/h (1 Bft) E 0,00 h 0,051 mm 19 W/m 0,2 C 9,1 C 7,9 km/h (2 Bft)
19/03/2021 19:00 8,6 C 52 % 1012,2 hPa 0,0 l/m 0,7 km/h (0 Bft) N-NE 0,00 h 0,025 mm 0 W/m -0,7 C 8,6 C 2,8 km/h (1 Bft)
19/03/2021 20:00 7,3 C 55 % 1012,7 hPa 0,0 l/m 0,0 km/h (0 Bft) N-NE 0,00 h 0,000 mm 0 W/m -1,0 C 7,3 C 0,3 km/h (0 Bft)
19/03/2021 21:00 5,7 C 57 % 1013,2 hPa 0,0 l/m 0,1 km/h (0 Bft) N-NE 0,00 h 0,025 mm 0 W/m -2,2 C 5,7 C 0,7 km/h (0 Bft)
19/03/2021 22:00 5,1 C 59 % 1013,9 hPa 0,0 l/m 1,1 km/h (0 Bft) N 0,00 h 0,025 mm 0 W/m -2,2 C 5,1 C 2,2 km/h (1 Bft)
19/03/2021 23:00 4,6 C 62 % 1014,4 hPa 0,0 l/m 0,8 km/h (0 Bft) E-SE 0,00 h 0,025 mm 0 W/m -2,0 C 4,6 C 2,7 km/h (1 Bft)
20/03/2021 00:00 4,3 C 64 % 1014,1 hPa 0,0 l/m 1,5 km/h (1 Bft) N 0,00 h 0,025 mm 0 W/m -1,9 C 4,3 C 3,5 km/h (1 Bft)
20/03/2021 01:00 4,3 C 63 % 1014,1 hPa 0,0 l/m 1,1 km/h (1 Bft) O-NO 0,00 h 0,025 mm 0 W/m -2,1 C 4,2 C 2,4 km/h (1 Bft)
20/03/2021 02:00 4,3 C 57 % 1014,2 hPa 0,0 l/m 0,3 km/h (0 Bft) O-NO 0,00 h 0,025 mm 0 W/m -3,4 C 4,3 C 0,9 km/h (0 Bft)
20/03/2021 03:00 4,0 C 57 % 1014,2 hPa 0,0 l/m 0,1 km/h (0 Bft) O-NO 0,00 h 0,025 mm 0 W/m -3,7 C 4,0 C 0,4 km/h (0 Bft)
20/03/2021 04:00 3,7 C 57 % 1014,2 hPa 0,0 l/m 0,8 km/h (0 Bft) O-NO 0,00 h 0,025 mm 0 W/m -4,0 C 3,7 C 1,9 km/h (1 Bft)
20/03/2021 05:00 3,7 C 57 % 1014,3 hPa 0,0 l/m 2,6 km/h (1 Bft) O-NO 0,00 h 0,025 mm 0 W/m -4,0 C 3,7 C 5,0 km/h (1 Bft)
20/03/2021 06:00 3,7 C 57 % 1014,5 hPa 0,0 l/m 1,9 km/h (1 Bft) O-NO 0,03 h 0,025 mm 11 W/m -4,0 C 3,7 C 4,2 km/h (1 Bft)
20/03/2021 07:00 4,1 C 56 % 1014,8 hPa 0,0 l/m 0,2 km/h (0 Bft) O-NO 0,00 h 0,025 mm 40 W/m -3,9 C 4,1 C 0,7 km/h (0 Bft)
20/03/2021 08:00 6,5 C 51 % 1015,1 hPa 0,0 l/m 0,0 km/h (0 Bft) N 0,70 h 0,025 mm 245 W/m -2,9 C 6,5 C 0,0 km/h (0 Bft)
20/03/2021 09:00 10,6 C 43 % 1015,4 hPa 0,0 l/m 0,0 km/h (0 Bft) SO 1,00 h 0,102 mm 459 W/m -1,4 C 10,6 C 0,1 km/h (0 Bft)
20/03/2021 10:00 12,8 C 35 % 1015,6 hPa 0,0 l/m 1,3 km/h (1 Bft) S-SE 1,00 h 0,229 mm 601 W/m -2,1 C 12,8 C 3,5 km/h (1 Bft)
20/03/2021 11:00 13,8 C 33 % 1015,5 hPa 0,0 l/m 3,6 km/h (1 Bft) S-SE 1,00 h 0,305 mm 717 W/m -2,3 C 13,8 C 7,5 km/h (2 Bft)
20/03/2021 12:00 14,4 C 36 % 1015,4 hPa 0,0 l/m 3,4 km/h (1 Bft) E 0,95 h 0,406 mm 773 W/m -0,6 C 14,4 C 8,2 km/h (2 Bft)
20/03/2021 13:00 14,5 C 38 % 1014,9 hPa 0,0 l/m 3,1 km/h (1 Bft) E 1,00 h 0,432 mm 694 W/m 0,5 C 14,5 C 8,6 km/h (2 Bft)
20/03/2021 14:00 12,7 C 41 % 1014,4 hPa 0,0 l/m 2,6 km/h (1 Bft) E 0,43 h 0,381 mm 378 W/m -0,2 C 12,7 C 7,4 km/h (2 Bft)
20/03/2021 15:00 12,5 C 41 % 1014,0 hPa 0,0 l/m 3,3 km/h (1 Bft) S 0,48 h 0,203 mm 359 W/m -0,3 C 12,5 C 7,4 km/h (2 Bft)
20/03/2021 16:00 11,0 C 44 % 1013,9 hPa 0,0 l/m 2,9 km/h (1 Bft) S-SE 0,20 h 0,203 mm 137 W/m -0,9 C 11,0 C 5,8 km/h (2 Bft)
20/03/2021 17:00 11,0 C 43 % 1014,1 hPa 0,0 l/m 2,3 km/h (1 Bft) S-SE 0,62 h 0,102 mm 126 W/m -1,1 C 11,0 C 4,5 km/h (1 Bft)
20/03/2021 18:00 9,2 C 51 % 1014,8 hPa 0,0 l/m 0,9 km/h (0 Bft) S-SE 0,00 h 0,076 mm 15 W/m -0,4 C 9,2 C 2,9 km/h (1 Bft)
20/03/2021 19:00 8,2 C 57 % 1015,4 hPa 0,0 l/m 2,1 km/h (1 Bft) O-SO 0,00 h 0,025 mm 0 W/m 0,1 C 8,1 C 4,5 km/h (1 Bft)
20/03/2021 20:00 7,6 C 58 % 1015,7 hPa 0,0 l/m 1,6 km/h (1 Bft) O-SO 0,00 h 0,025 mm 0 W/m 0,0 C 7,6 C 3,5 km/h (1 Bft)
20/03/2021 21:00 6,9 C 59 % 1016,0 hPa 0,0 l/m 4,7 km/h (1 Bft) O-NO 0,00 h 0,025 mm 0 W/m -0,6 C 6,3 C 7,9 km/h (2 Bft)
20/03/2021 22:00 6,5 C 61 % 1016,0 hPa 0,0 l/m 5,6 km/h (1 Bft) NO 0,00 h 0,051 mm 0 W/m -0,5 C 5,6 C 9,2 km/h (2 Bft)
20/03/2021 23:00 6,1 C 62 % 1016,1 hPa 0,0 l/m 1,2 km/h (1 Bft) O-NO 0,00 h 0,051 mm 0 W/m -0,6 C 5,9 C 2,4 km/h (1 Bft)
21/03/2021 00:00 5,2 C 64 % 1016,1 hPa 0,0 l/m 0,5 km/h (0 Bft) O-NO 0,00 h 0,025 mm 0 W/m -1,0 C 5,2 C 1,7 km/h (1 Bft)
21/03/2021 01:00 5,0 C 65 % 1016,1 hPa 0,0 l/m 0,6 km/h (0 Bft) O-NO 0,00 h 0,025 mm 0 W/m -1,1 C 5,0 C 2,1 km/h (1 Bft)
21/03/2021 02:00 4,7 C 64 % 1015,8 hPa 0,0 l/m 0,6 km/h (0 Bft) O-NO 0,00 h 0,025 mm 0 W/m -1,6 C 4,7 C 2,1 km/h (1 Bft)
21/03/2021 03:00 4,4 C 63 % 1015,5 hPa 0,0 l/m 1,3 km/h (1 Bft) O-NO 0,00 h 0,025 mm 0 W/m -2,0 C 4,4 C 2,7 km/h (1 Bft)
21/03/2021 04:00 4,3 C 63 % 1015,1 hPa 0,0 l/m 3,3 km/h (1 Bft) O-NO 0,00 h 0,025 mm 0 W/m -2,1 C 4,0 C 5,8 km/h (2 Bft)
21/03/2021 05:00 4,0 C 64 % 1014,8 hPa 0,0 l/m 3,2 km/h (1 Bft) O-NO 0,00 h 0,025 mm 0 W/m -2,2 C 3,9 C 5,2 km/h (1 Bft)
21/03/2021 06:00 4,2 C 65 % 1014,8 hPa 0,0 l/m 3,6 km/h (1 Bft) O-NO 0,02 h 0,025 mm 12 W/m -1,8 C 4,0 C 6,1 km/h (2 Bft)
21/03/2021 07:00 5,0 C 66 % 1014,9 hPa 0,0 l/m 2,3 km/h (1 Bft) O-NO 0,00 h 0,025 mm 37 W/m -0,8 C 4,9 C 4,9 km/h (1 Bft)
21/03/2021 08:00 7,8 C 61 % 1014,7 hPa 0,0 l/m 5,1 km/h (1 Bft) SO 0,68 h 0,025 mm 248 W/m 0,8 C 7,2 C 10,0 km/h (2 Bft)
21/03/2021 09:00 9,7 C 56 % 1014,5 hPa 0,0 l/m 6,5 km/h (2 Bft) SO 1,00 h 0,127 mm 453 W/m 1,2 C 9,0 C 13,0 km/h (3 Bft)
21/03/2021 10:00 10,2 C 55 % 1014,3 hPa 0,0 l/m 10,0 km/h (2 Bft) S-SO 0,97 h 0,229 mm 455 W/m 1,6 C 9,9 C 16,4 km/h (3 Bft)
21/03/2021 11:00 11,1 C 53 % 1013,8 hPa 0,0 l/m 7,7 km/h (2 Bft) S 0,98 h 0,254 mm 552 W/m 2,0 C 11,1 C 12,6 km/h (3 Bft)
21/03/2021 12:00 11,7 C 54 % 1013,1 hPa 0,0 l/m 8,7 km/h (2 Bft) S 1,00 h 0,305 mm 533 W/m 2,6 C 11,7 C 14,9 km/h (3 Bft)
21/03/2021 13:00 12,3 C 52 % 1012,6 hPa 0,0 l/m 7,8 km/h (2 Bft) S 1,00 h 0,305 mm 716 W/m 2,8 C 12,3 C 13,6 km/h (3 Bft)
21/03/2021 14:00 12,5 C 51 % 1011,6 hPa 0,0 l/m 6,2 km/h (2 Bft) S 1,00 h 0,381 mm 623 W/m 2,7 C 12,5 C 11,3 km/h (2 Bft)
21/03/2021 15:00 11,9 C 54 % 1010,8 hPa 0,0 l/m 6,0 km/h (2 Bft) S-SE 1,00 h 0,330 mm 495 W/m 2,8 C 11,9 C 10,7 km/h (2 Bft)
21/03/2021 16:00 11,4 C 56 % 1010,3 hPa 0,0 l/m 6,6 km/h (2 Bft) S-SE 1,00 h 0,279 mm 337 W/m 3,0 C 11,4 C 11,1 km/h (2 Bft)
21/03/2021 17:00 10,2 C 61 % 1009,9 hPa 0,0 l/m 5,9 km/h (2 Bft) S 0,63 h 0,203 mm 142 W/m 3,0 C 10,0 C 9,7 km/h (2 Bft)
21/03/2021 18:00 8,3 C 69 % 1009,4 hPa 0,0 l/m 1,0 km/h (0 Bft) SO 0,00 h 0,102 mm 21 W/m 3,0 C 8,3 C 2,1 km/h (1 Bft)
21/03/2021 19:00 7,3 C 73 % 1009,5 hPa 0,0 l/m 0,1 km/h (0 Bft) SO 0,00 h 0,025 mm 0 W/m 2,8 C 7,3 C 0,4 km/h (0 Bft)
21/03/2021 20:00 6,3 C 76 % 1009,6 hPa 0,0 l/m 0,3 km/h (0 Bft) SO 0,00 h 0,000 mm 0 W/m 2,4 C 6,3 C 1,7 km/h (1 Bft)
21/03/2021 21:00 5,7 C 78 % 1009,7 hPa 0,0 l/m 0,7 km/h (0 Bft) NO 0,00 h 0,025 mm 0 W/m 2,3 C 5,7 C 2,6 km/h (1 Bft)
21/03/2021 22:00 5,6 C 79 % 1010,0 hPa 0,0 l/m 2,2 km/h (1 Bft) NO 0,00 h 0,025 mm 0 W/m 2,2 C 5,5 C 4,8 km/h (1 Bft)
21/03/2021 23:00 5,6 C 78 % 1010,3 hPa 0,0 l/m 1,5 km/h (1 Bft) NO 0,00 h 0,025 mm 0 W/m 2,1 C 5,6 C 3,6 km/h (1 Bft)
Min-Date _ 20/03/21 16/03/21 15/03/21 - 15/03/21 - - - - 16/03/21 20/03/21 15/03/21
_ Min-Heure 04:14 14:11 14:45 - 04:53 - - - - 14:11 06:21 04:56
Minimum _ 3,6 C 19 % 1007,9 hPa - 0,0 km/h (0 Bft) - - - - -6,1 C 2,6 C 0,0 km/h (0 Bft)
Max-Date _ 15/03/21 17/03/21 16/03/21 17/03/21 15/03/21 - 15/03/21 16/03/21 20/03/21 18/03/21 15/03/21 15/03/21
_ Max-Heure 14:37 19:24 23:00 17:35 02:22 - 06:53 13:01 12:22 15:49 14:37 02:22
Maximum _ 19,3 C 91 % 1017,1 hPa 0,8 l/m 17,7 km/h
O-NO (3 Bft)
- 0,02 h 0,457 mm 889 W/m 6,4 C 19,3 C 35,4 km/h
O-NO (5 Bft)
Moyenne _ 9,4 C 57 % 1013,6 hPa #2,2 l/m 2,4 km/h (1 Bft) O-NO #48:14 h #18,338 mm 311 W/m 0,7 C 9,3 C 5,1 km/h (1 Bft)
Roquefort les pins